Weather observations for the past three days for
Craig-Moffat Airport
Metric (Imperial)
Date Time (mdt) Wind (kph) Vis. (km) Weather Sky Cond. Temperature (ºC) Relative Humidity Wind Chill (°C) Heat Index (°C) Pressure Precipitation (cm)
Air Dwpt 6 hour altimeter (cm) sea level (mb) 1 hr 3 hr 6 hr
Max. Min.
10 08:53 Calm 16.09 Fair CLR 6.7 0 63% 77.04 1024.4
10 07:53 Calm 16.09 Fair CLR 3.3 0.6 83% 77.04 1024.4
10 06:53 Calm 16.09 Fair CLR 0 -1.7 88% 76.99 1023.8
10 05:53 Calm 16.09 Fair CLR -1.1 -2.8 5.6 -2.2 88% 76.94 1023.4
10 04:53 Calm 16.09 Fair CLR -1.1 -1.7 96% 76.91 1022.0
10 03:53 S 6 16.09 Fair CLR -1.1 -2.2 92% 76.86 1021.7
10 02:53 SW 7 16.09 Fair CLR 0 -1.7 88% -2 76.78 1020.5
10 01:53 SW 7 16.09 Fair CLR 0.6 -1.7 85% -1 76.81 1020.8
10 00:53 Calm 16.09 Fair CLR 2.8 -0.6 79% 76.78 1020.1
09 23:53 S 6 16.09 Fair CLR 5 0 20.6 5 70% 76.73 1018.8
09 22:53 SE 9 16.09 Fair CLR 8.3 0 56% 7 76.68 1017.8
09 21:53 N 15 G 31 16.09 Fair CLR 11.7 -1.1 41% 76.66 1016.8
09 20:53 N 28 G 48 16.09 Fair CLR 12.2 -0.6 42% 76.53 1016.1
09 19:53 N 26 G 50 16.09 Fair CLR 15.6 -2.2 30% 76.33 1013.9
09 18:53 NW 15 16.09 Partly Cloudy SCT110 18.3 -6.1 19% 76.23 1012.1
09 17:53 W 17 16.09 A Few Clouds FEW100 FEW120 18.9 -5.6 21.7 18.3 19% 76.23 1012.4
09 16:53 W 30 G 41 16.09 Fair CLR 21.7 -7.8 13% 76.25 1012.3
09 15:53 W 24 G 50 16.09 Fair CLR 21.1 -8.3 13% 76.3 1012.4
09 14:53 W 26 G 41 16.09 Fair CLR 21.1 -5.6 16% 76.35 1013.1
09 13:53 NW 13 G 30 16.09 Fair CLR 19.4 -5 19% 76.38 1013.2
09 12:53 W 28 16.09 Fair CLR 19.4 -6.1 17% 76.4 1013.7
09 11:53 NW 22 G 35 16.09 Fair CLR 18.9 -3.3 18.9 1.7 22% 76.43 1013.3
09 10:53 W 28 G 39 16.09 Fair CLR 17.8 -5.6 20% 76.43 1013.5
09 09:53 W 30 G 44 16.09 Fair CLR 16.7 -3.9 24% 76.43 1013.6
09 08:53 SW 7 16.09 Fair CLR 12.2 3.9 57% 76.43 1015.0
09 07:53 W 6 16.09 Fair CLR 6.7 2.8 76% 76.43 1014.8
09 06:53 NE 6 16.09 Fair CLR 4.4 1.1 79% 76.4 1014.2
09 05:53 SE 7 16.09 Fair CLR 2.8 1.1 11.7 1.1 89% 1 76.35 1013.7
09 04:53 Calm 16.09 Fair CLR 1.7 0 89% 76.33 1013.7
09 03:53 Calm 16.09 Fair CLR 5 1.1 76% 76.33 1012.7
09 02:53 Calm 16.09 Fair CLR 5 1.1 76% 76.3 1012.7
09 01:53 Calm 16.09 Mostly Cloudy BKN110 7.8 0.6 61% 76.3 1012.1
09 00:53 Vrbl 9 16.09 Fair CLR 8.3 0 56% 7 76.3 1012.1
08 23:53 SW 17 16.09 Fair CLR 11.1 -1.1 21.7 10.6 43% 76.3 1011.8
08 22:53 SW 19 16.09 Fair CLR 11.7 0.6 47% 76.28 1011.9
08 21:53 W 13 16.09 Mostly Cloudy BKN120 12.8 1.1 45% 76.25 1011.9
08 20:53 W 6 16.09 Fair CLR 11.1 1.7 53% 76.15 1011.8
08 19:53 SW 17 16.09 Fair CLR 16.1 1.1 36% 76.12 1010.8
08 18:53 SW 22 G 35 16.09 Fair CLR 20.6 -2.2 22% 76.1 1010.9
08 17:53 SW 28 G 39 16.09 Fair CLR 21.1 -1.1 21.7 17.2 23% 76.12 1010.7
08 16:53 W 22 G 41 16.09 Fair CLR 21.1 -2.8 20% 76.15 1011.1
08 15:53 W 22 G 35 16.09 A Few Clouds FEW100 21.7 -1.7 21% 76.2 1011.7
08 14:53 W 13 G 33 16.09 Fair CLR 20 -3.3 21% 76.25 1012.7
08 13:53 W 22 G 35 16.09 Fair CLR 20 -2.2 22% 76.3 1012.8
08 12:53 W 19 G 30 16.09 Fair CLR 18.9 -1.1 26% 76.3 1013.1
08 11:53 W 19 G 28 16.09 Fair CLR 17.2 0 17.8 0 31% 76.38 1014.0
08 10:53 Calm 16.09 Fair CLR 15.6 0 35% 76.4 1014.4
08 09:53 Calm 16.09 Fair CLR 12.8 1.7 47% 76.43 1014.6
08 08:53 Calm 16.09 Fair CLR 8.9 2.2 63% 76.45 1015.9
08 07:53 Calm 16.09 Fair CLR 5.6 1.1 73% 76.45 1015.6
08 06:53 SE 6 16.09 Fair CLR 0.6 0 96% 76.43 1016.3
08 05:53 Calm 16.09 Fair CLR 2.2 0.6 7.2 0.6 89% 76.38 1015.2
08 04:53 NE 7 16.09 Partly Cloudy SCT100 2.2 0.6 89% 0 76.35 1015.0
08 03:53 Calm 16.09 Fair CLR 1.1 -0.6 89% 76.33 1014.2
08 02:53 SE 6 16.09 Fair CLR 2.2 0 86% 76.33 1014.2
08 01:53 Calm 16.09 A Few Clouds FEW090 4.4 1.1 79% 76.33 1013.7
08 00:53 Calm 16.09 Mostly Cloudy BKN095 5 0.6 73% 76.33 1013.9
07 23:53 Calm 16.09 Fair CLR 7.2 0 16.7 6.7 61% 76.3 1013.8
07 22:53 SW 7 16.09 Mostly Cloudy BKN110 8.9 1.1 58% 8 76.3 1013.8
07 21:53 W 9 16.09 Overcast OVC100 11.1 0.6 49% 76.3 1014.2
07 20:53 SW 19 16.09 Partly Cloudy SCT120 11.1 0.6 49% 76.2 1013.3
07 19:53 SW 19 16.09 Mostly Cloudy BKN110 15 0 36% 76.15 1012.4
07 18:53 SW 24 G 41 16.09 Fair CLR 15.6 0 35% 76.15 1013.4
07 17:53 W 26 G 43 16.09 Fair CLR 16.7 0 18.9 12.8 32% 76.17 1013.4
07 16:53 W 24 G 67 16.09 Overcast SCT070 OVC085 16.7 0 32% 76.2 1014.0
07 15:53 W 33 G 50 16.09 Fair and Breezy CLR 18.3 0 29% 76.2 1013.4
07 14:53 W 28 G 44 16.09 Fair CLR 17.2 0 31% 76.28 1014.9
07 13:53 W 19 G 39 16.09 Fair CLR 17.2 0.6 33% 76.35 1015.4
07 12:53 W 22 G 35 16.09 A Few Clouds FEW070 15.6 0.6 36% 76.43 1016.8
07 11:53 Vrbl 7 16.09 Fair CLR 12.8 -1.1 13.3 -3.9 38% 76.5 1018.5
07 10:53 Calm 16.09 Fair CLR 10.6 -2.8 39% 76.61 1019.7
07 09:53 E 11 16.09 Overcast OVC070 7.2 -3.3 48% 5 76.63 1021.2
Date Time (mdt) Wind (kph) Vis. (km) Weather Sky Cond. Air Dwpt Max. Min. Relative Humidity Wind Chill (°C) Heat Index (°C) altimeter (cm) sea level (mb) 1 hr 3 hr 6 hr
6 hour
Temperature (ºC) Pressure Precipitation (cm)